Αρχική σελίδα
METAR-TAF:

METAR-TAF

Αεροδρόμια :

Salina Municipal Airport

Salina, Κάνσας, Ηνωμένες Πολιτείες Αμερικής

γεωγραφικό πλάτος: 38-46-48N, γεωγραφικό μήκος: 097-38-39W, υψόμετρο: 387 μ

Παρών καιρός

Η αναφορά έγινε 36 λεπτά πριν, στις 10:53 UTC
Άνεμος 7 kt από Ν
Θερμοκρασία 23°C
Υγρασία 89%
Πίεση 1012 hPa
Ορατότητα: 16.1 χλμ
Καθαρός ουρανός

METAR: KSLN 191053Z AUTO 18007KT 10SM CLR 23/21 A2987 RMK AO2 SLP098 T02280206

Χρόνος: 06:29 (11:29 UTC)

Πρόγνωση Καιρού

Η αναφορά έγινε 6 ώρες και 9 λεπτά πριν, στις 05:20 UTC
Η πρόγνωση ισχύει από τις 19 στις 06 UTC έως τις 20 στις 06 UTC
Άνεμος 9 kt από Ν
Ορατότητα: 10 χλμ
Καθαρός ουρανός
Από 19 στις 1800 UTC
Άνεμος 17 kt από Ν με ριπές μέχρι 25 kt
Ορατότητα: 10 χλμ
Καθαρός ουρανός
Από 20 στις 0100 UTC
Άνεμος 15 kt από Ν
Ορατότητα: 10 χλμ
Καθαρός ουρανός

TAF: KSLN 190520Z 1906/2006 17009KT P6SM SKC FM191800 19017G25KT P6SM SKC FM200100 17015KT P6SM SKC

Μετεωρολογικές αναφορές και προγνώσεις για περισσότερα από 4000 αεροδρόμια (δελτία METAR και TAF).

Οι διαθέσιμοι σταθμοί απεικονίζονται στο χάρτη με κίτρινες και κόκκινες κουκκίδες.

Μετακινήστε το ποντίκι πάνω από τις κουκκίδες για να δείτε το όνομα του σταθμού.

Στη συνέχεια, κάντε κλικ για να δείτε τις μετεωρολογικές αναφορές και τις προγνώσεις καιρού.

Για να αλλάξετε το χάρτη: κάντε κλικ στα πράσινα κουμπιά με τον μαύρο σταυρό για να ζουμάρετε, στο πράσινο κουμπί με την παύλα για να αφαιρέσετε το ζουμ ή στα πράσινα βέλη για να αντιπαραβάλλετε χάρτες.


METAR-TAF: